createdAt,value
2018-09-11T00:01:10.741Z,15.90
2018-09-11T00:03:38.017Z,15.90
2018-09-11T00:06:05.470Z,15.70
2018-09-11T00:08:32.732Z,15.60
2018-09-11T00:11:00.001Z,15.50
2018-09-11T00:13:27.278Z,15.50
2018-09-11T00:15:54.541Z,15.60
2018-09-11T00:18:21.829Z,15.60
2018-09-11T00:20:49.077Z,15.60
2018-09-11T00:23:16.666Z,15.50
2018-09-11T00:25:43.913Z,15.40
2018-09-11T00:28:11.173Z,15.50
2018-09-11T00:30:38.803Z,15.60
2018-09-11T00:33:06.077Z,15.50
2018-09-11T00:35:33.350Z,15.50
2018-09-11T00:38:00.617Z,15.50
2018-09-11T00:40:27.894Z,15.60
2018-09-11T00:42:55.260Z,15.70
2018-09-11T00:45:22.670Z,15.60
2018-09-11T00:47:50.054Z,15.50
2018-09-11T00:50:17.557Z,15.40
2018-09-11T00:52:44.813Z,15.40
2018-09-11T00:55:12.281Z,15.40
2018-09-11T00:57:39.545Z,15.40
2018-09-11T01:00:07.137Z,15.40
2018-09-11T01:02:34.428Z,15.30
2018-09-11T01:05:01.734Z,15.20
2018-09-11T01:07:29.241Z,15.30
2018-09-11T01:09:56.502Z,15.30
2018-09-11T01:12:23.765Z,15.10
2018-09-11T01:14:51.033Z,15.00
2018-09-11T01:17:18.365Z,15.10
2018-09-11T01:19:46.289Z,15.10
2018-09-11T01:22:13.585Z,15.10
2018-09-11T01:24:40.866Z,15.10
2018-09-11T01:27:08.334Z,15.10
2018-09-11T01:29:35.634Z,15.00
2018-09-11T01:32:02.889Z,15.00
2018-09-11T01:34:30.301Z,14.90
2018-09-11T01:36:57.583Z,15.00
2018-09-11T01:39:25.725Z,15.00
2018-09-11T01:41:52.989Z,15.00
2018-09-11T01:44:20.257Z,14.90
2018-09-11T01:46:47.549Z,14.90
2018-09-11T01:49:14.822Z,14.90
2018-09-11T01:51:42.097Z,15.00
2018-09-11T01:54:09.377Z,14.80
2018-09-11T01:56:36.652Z,14.90
2018-09-11T01:59:03.862Z,14.80
2018-09-11T02:01:31.138Z,14.90
2018-09-11T02:03:59.926Z,14.80
2018-09-11T02:06:27.160Z,14.70
2018-09-11T02:08:55.752Z,14.80
2018-09-11T02:11:22.985Z,14.60
2018-09-11T02:13:50.197Z,14.50
2018-09-11T02:16:17.413Z,14.50
2018-09-11T02:18:45.651Z,14.40
2018-09-11T02:21:12.872Z,15.40
2018-09-11T02:23:40.078Z,14.60
2018-09-11T02:26:07.297Z,14.40
2018-09-11T02:28:34.497Z,14.40
2018-09-11T02:31:01.718Z,14.50
2018-09-11T02:33:28.913Z,14.60
2018-09-11T02:35:56.178Z,14.60
2018-09-11T02:38:23.372Z,14.60
2018-09-11T02:40:50.754Z,14.50
2018-09-11T02:43:18.043Z,14.40
2018-09-11T02:45:45.303Z,14.40
2018-09-11T02:48:12.526Z,14.30
2018-09-11T02:50:39.861Z,14.20
2018-09-11T02:53:07.069Z,14.10
2018-09-11T02:55:34.269Z,14.30
2018-09-11T02:58:01.577Z,14.20
2018-09-11T03:00:29.883Z,14.20
2018-09-11T03:02:57.231Z,13.50
2018-09-11T03:05:24.509Z,14.10
2018-09-11T03:07:51.897Z,14.00
2018-09-11T03:10:19.402Z,14.00
2018-09-11T03:12:46.719Z,14.10
2018-09-11T03:15:13.998Z,14.10
2018-09-11T03:17:42.918Z,14.10
2018-09-11T03:20:10.213Z,14.40
2018-09-11T03:22:37.490Z,13.80
2018-09-11T03:25:04.786Z,13.80
2018-09-11T03:27:32.061Z,13.80
2018-09-11T03:29:59.568Z,13.60
2018-09-11T03:32:26.836Z,13.50
2018-09-11T03:34:54.090Z,13.60
2018-09-11T03:37:21.450Z,13.50
2018-09-11T03:39:48.765Z,13.40
2018-09-11T03:42:16.032Z,13.50
2018-09-11T03:44:43.314Z,13.60
2018-09-11T03:47:10.580Z,13.80
2018-09-11T03:49:37.914Z,13.80
2018-09-11T03:52:05.237Z,13.80
2018-09-11T03:54:32.638Z,13.80
2018-09-11T03:56:59.958Z,13.80
2018-09-11T03:59:27.201Z,13.70
2018-09-11T04:01:54.410Z,13.50
2018-09-11T04:04:21.617Z,13.40
2018-09-11T04:06:48.824Z,13.30
2018-09-11T04:09:16.044Z,13.20
2018-09-11T04:11:43.655Z,13.20
2018-09-11T04:14:11.066Z,13.20
2018-09-11T04:16:38.365Z,13.10
2018-09-11T04:19:05.869Z,13.10
2018-09-11T04:21:34.938Z,13.10
2018-09-11T04:24:02.215Z,12.90
2018-09-11T04:26:29.461Z,13.10
2018-09-11T04:28:56.718Z,13.10
2018-09-11T04:31:23.946Z,13.00
2018-09-11T04:33:51.337Z,13.00
2018-09-11T04:36:18.571Z,13.00
2018-09-11T04:38:45.778Z,13.00
2018-09-11T04:41:13.105Z,13.20
2018-09-11T04:43:43.983Z,13.10
2018-09-11T04:46:12.025Z,13.20
2018-09-11T04:48:40.226Z,13.30
2018-09-11T04:51:09.594Z,13.30
2018-09-11T04:53:37.081Z,13.30
2018-09-11T04:56:04.384Z,13.30
2018-09-11T04:58:31.573Z,13.20
2018-09-11T05:00:58.932Z,13.20
2018-09-11T05:03:26.129Z,13.20
2018-09-11T05:05:53.374Z,13.20
2018-09-11T05:08:20.653Z,13.30
2018-09-11T05:10:47.897Z,13.20
2018-09-11T05:13:17.329Z,13.20
2018-09-11T05:15:44.656Z,13.30
2018-09-11T05:18:11.858Z,13.30
2018-09-11T05:20:39.106Z,13.30
2018-09-11T05:23:06.509Z,13.30
2018-09-11T05:25:35.526Z,13.20
2018-09-11T05:28:02.734Z,13.20
2018-09-11T05:30:29.957Z,13.20
2018-09-11T05:32:57.153Z,13.30
2018-09-11T05:35:24.377Z,13.40
2018-09-11T05:37:51.573Z,13.30
2018-09-11T05:40:18.773Z,13.20
2018-09-11T05:42:47.755Z,13.30
2018-09-11T05:45:14.962Z,13.40
2018-09-11T05:47:43.906Z,13.40
2018-09-11T05:50:11.178Z,13.40
2018-09-11T05:52:39.213Z,13.40
2018-09-11T05:55:06.510Z,13.40
2018-09-11T05:57:33.828Z,13.40
2018-09-11T06:00:02.414Z,13.50
2018-09-11T06:02:29.749Z,13.60
2018-09-11T06:04:58.778Z,13.80
2018-09-11T06:07:26.143Z,13.90
2018-09-11T06:09:53.398Z,14.10
2018-09-11T06:12:20.691Z,14.10
2018-09-11T06:14:47.949Z,14.10
2018-09-11T06:17:15.225Z,14.10
2018-09-11T06:19:42.477Z,14.10
2018-09-11T06:22:11.106Z,14.20
2018-09-11T06:24:38.353Z,14.30
2018-09-11T06:27:05.649Z,14.40
2018-09-11T06:29:32.918Z,14.40
2018-09-11T06:32:00.218Z,14.40
2018-09-11T06:34:27.488Z,14.50
2018-09-11T06:36:54.798Z,14.60
2018-09-11T06:39:22.095Z,14.70
2018-09-11T06:41:49.335Z,14.70
2018-09-11T06:44:16.602Z,14.70
2018-09-11T06:46:43.921Z,14.80
2018-09-11T06:49:12.306Z,14.90
2018-09-11T06:51:39.573Z,15.00
2018-09-11T06:54:06.961Z,15.10
2018-09-11T06:56:34.233Z,15.10
2018-09-11T06:59:01.527Z,15.20
2018-09-11T07:01:28.840Z,15.40
2018-09-11T07:03:56.125Z,15.50
2018-09-11T07:06:23.421Z,15.60
2018-09-11T07:08:51.985Z,15.70
2018-09-11T07:11:19.294Z,15.80
2018-09-11T07:13:46.911Z,15.90
2018-09-11T07:16:16.039Z,16.00
2018-09-11T07:18:43.363Z,16.10
2018-09-11T07:21:10.650Z,16.20
2018-09-11T07:23:37.918Z,16.40
2018-09-11T07:26:05.454Z,16.50
2018-09-11T07:28:32.729Z,16.60
2018-09-11T07:31:03.159Z,16.70
2018-09-11T07:33:30.498Z,16.90
2018-09-11T07:35:57.769Z,17.00
2018-09-11T07:38:25.044Z,17.00
2018-09-11T07:40:52.326Z,17.20
2018-09-11T07:43:19.613Z,17.20
2018-09-11T07:45:46.865Z,17.20
2018-09-11T07:48:14.081Z,17.40
2018-09-11T07:50:41.292Z,17.50
2018-09-11T07:53:08.518Z,17.50
2018-09-11T07:55:35.716Z,17.60
2018-09-11T07:58:03.100Z,17.70
2018-09-11T08:00:30.317Z,17.70
2018-09-11T08:02:57.661Z,17.70
2018-09-11T08:05:25.405Z,17.80
2018-09-11T08:07:52.709Z,17.90
2018-09-11T08:10:19.978Z,18.00
2018-09-11T08:12:47.521Z,18.10
2018-09-11T08:15:14.924Z,18.10
2018-09-11T08:17:42.189Z,18.20
2018-09-11T08:20:09.501Z,18.30
2018-09-11T08:22:36.774Z,18.40
2018-09-11T08:25:04.038Z,18.40
2018-09-11T08:27:31.316Z,18.50
2018-09-11T08:29:58.637Z,18.60
2018-09-11T08:32:27.590Z,18.60
2018-09-11T08:34:54.837Z,18.70
2018-09-11T08:37:22.129Z,18.90
2018-09-11T08:39:49.396Z,18.80
2018-09-11T08:42:16.662Z,18.90
2018-09-11T08:44:43.930Z,18.90
2018-09-11T08:47:11.201Z,19.00
2018-09-11T08:49:38.458Z,19.10
2018-09-11T08:52:06.557Z,19.10
2018-09-11T08:54:33.821Z,19.20
2018-09-11T08:57:01.111Z,19.20
2018-09-11T08:59:28.326Z,19.20
2018-09-11T09:01:57.386Z,19.30
2018-09-11T09:04:24.814Z,19.40
2018-09-11T09:06:52.051Z,19.40
2018-09-11T09:09:19.245Z,19.50
2018-09-11T09:11:46.469Z,19.50
2018-09-11T09:14:13.662Z,19.70
2018-09-11T09:16:40.910Z,19.80
2018-09-11T09:19:08.125Z,19.80
2018-09-11T09:21:35.337Z,19.80
2018-09-11T09:24:02.549Z,19.90
2018-09-11T09:26:30.610Z,20.00
2018-09-11T09:28:57.814Z,20.00
2018-09-11T09:31:25.820Z,20.10
2018-09-11T09:33:53.043Z,20.10
2018-09-11T09:36:20.931Z,20.20
2018-09-11T09:38:48.138Z,20.20
2018-09-11T09:41:16.458Z,20.20
2018-09-11T09:43:43.677Z,20.20
2018-09-11T09:46:10.893Z,20.20
2018-09-11T09:48:38.125Z,20.30
2018-09-11T09:51:05.275Z,20.30
2018-09-11T09:53:32.497Z,20.40
2018-09-11T09:55:59.721Z,20.40
2018-09-11T09:58:27.250Z,20.40
2018-09-11T10:01:01.123Z,20.50
2018-09-11T10:03:28.366Z,20.60
2018-09-11T10:05:55.653Z,20.50
2018-09-11T10:08:22.861Z,20.50
2018-09-11T10:10:50.050Z,20.60
2018-09-11T10:13:17.257Z,20.60
2018-09-11T10:15:44.473Z,20.70
2018-09-11T10:18:11.681Z,20.70
2018-09-11T10:20:38.873Z,20.70
2018-09-11T10:23:06.107Z,20.70
2018-09-11T10:25:33.330Z,20.80
2018-09-11T10:28:00.570Z,20.80
2018-09-11T10:30:27.806Z,20.80
2018-09-11T10:32:55.033Z,20.90
2018-09-11T10:35:22.506Z,20.90
2018-09-11T10:37:49.762Z,20.90
2018-09-11T10:40:16.964Z,21.00
2018-09-11T10:42:44.184Z,21.00
2018-09-11T10:45:11.409Z,21.20
2018-09-11T10:47:42.942Z,21.20
2018-09-11T10:50:10.150Z,21.20
2018-09-11T10:52:37.386Z,21.20
2018-09-11T10:55:04.833Z,21.20
2018-09-11T10:57:32.146Z,21.20
2018-09-11T10:59:59.400Z,21.30
2018-09-11T11:02:26.686Z,21.30
2018-09-11T11:04:53.941Z,21.40
2018-09-11T11:07:21.277Z,21.40
2018-09-11T11:09:48.566Z,21.50
2018-09-11T11:12:15.852Z,21.50
2018-09-11T11:14:43.609Z,21.60
2018-09-11T11:17:11.063Z,21.80
2018-09-11T11:19:38.201Z,21.80
2018-09-11T11:22:07.086Z,21.70
2018-09-11T11:24:34.389Z,21.70
2018-09-11T11:27:01.734Z,21.80
2018-09-11T11:29:28.949Z,21.80
2018-09-11T11:31:56.225Z,21.80
2018-09-11T11:34:23.515Z,21.90
2018-09-11T11:36:50.908Z,21.90
2018-09-11T11:39:18.058Z,21.90
2018-09-11T11:41:45.374Z,22.00
2018-09-11T11:44:12.591Z,22.10
2018-09-11T11:46:40.595Z,22.10
2018-09-11T11:49:07.870Z,22.10
2018-09-11T11:51:35.202Z,22.00
2018-09-11T11:54:03.462Z,22.00
2018-09-11T11:56:30.721Z,21.60
2018-09-11T11:58:57.949Z,22.00
2018-09-11T12:01:25.333Z,22.00
2018-09-11T12:03:52.518Z,21.90
2018-09-11T12:06:19.726Z,22.00
2018-09-11T12:08:46.942Z,22.00
2018-09-11T12:11:14.165Z,22.10
2018-09-11T12:13:41.387Z,22.10
2018-09-11T12:16:08.644Z,22.30
2018-09-11T12:18:35.830Z,22.30
2018-09-11T12:21:03.049Z,22.40
2018-09-11T12:23:30.298Z,22.50
2018-09-11T12:25:57.509Z,22.50
2018-09-11T12:28:24.985Z,22.60
2018-09-11T12:30:52.311Z,22.70
2018-09-11T12:33:19.590Z,22.70
2018-09-11T12:35:46.790Z,22.70
2018-09-11T12:38:14.014Z,22.70
2018-09-11T12:40:41.240Z,22.80
2018-09-11T12:43:10.498Z,22.90
2018-09-11T12:45:37.742Z,22.90
2018-09-11T12:48:05.627Z,22.90
2018-09-11T12:50:32.393Z,23.00
2018-09-11T12:53:00.946Z,23.00
2018-09-11T12:55:28.145Z,23.40
2018-09-11T12:57:55.365Z,23.00
2018-09-11T13:00:22.569Z,23.00
2018-09-11T13:02:49.794Z,23.10
2018-09-11T13:05:16.990Z,23.10
2018-09-11T13:07:44.218Z,23.20
2018-09-11T13:10:11.443Z,23.30
2018-09-11T13:12:39.726Z,23.30
2018-09-11T13:15:06.991Z,23.30
2018-09-11T13:17:34.157Z,23.30
2018-09-11T13:20:01.364Z,23.30
2018-09-11T13:22:28.582Z,23.30
2018-09-11T13:24:55.793Z,23.30
2018-09-11T13:27:24.002Z,23.40
2018-09-11T13:29:51.270Z,23.40
2018-09-11T13:32:18.477Z,23.50
2018-09-11T13:34:45.704Z,23.50
2018-09-11T13:37:12.909Z,23.50
2018-09-11T13:39:41.597Z,23.50
2018-09-11T13:42:08.835Z,23.50
2018-09-11T13:44:36.042Z,23.50
2018-09-11T13:47:04.771Z,23.50
2018-09-11T13:49:31.943Z,23.50
2018-09-11T13:51:59.163Z,23.50
2018-09-11T13:54:26.657Z,23.50
2018-09-11T13:56:53.869Z,23.60
2018-09-11T13:59:21.090Z,23.60
2018-09-11T14:01:48.345Z,23.60
2018-09-11T14:04:16.455Z,23.60
2018-09-11T14:06:43.662Z,23.70
2018-09-11T14:09:13.279Z,23.70
2018-09-11T14:11:41.763Z,23.80
2018-09-11T14:14:09.153Z,23.80
2018-09-11T14:16:36.357Z,23.90
2018-09-11T14:19:04.635Z,23.90
2018-09-11T14:21:31.927Z,23.90
2018-09-11T14:23:59.150Z,24.00
2018-09-11T14:26:26.402Z,23.90
2018-09-11T14:28:53.633Z,23.90
2018-09-11T14:31:20.852Z,23.90
2018-09-11T14:33:48.078Z,23.90
2018-09-11T14:36:15.287Z,23.90
2018-09-11T14:38:42.544Z,23.90
2018-09-11T14:41:09.862Z,24.00
2018-09-11T14:43:37.177Z,24.00
2018-09-11T14:46:04.430Z,24.00
2018-09-11T14:48:31.737Z,24.10
2018-09-11T14:50:59.037Z,24.10
2018-09-11T14:53:26.254Z,24.20
2018-09-11T14:55:53.546Z,24.20
2018-09-11T14:58:20.813Z,24.20
2018-09-11T15:00:48.096Z,24.20
2018-09-11T15:03:15.461Z,24.30
2018-09-11T15:05:42.741Z,24.30
2018-09-11T15:08:10.022Z,24.30
2018-09-11T15:10:37.277Z,24.20
2018-09-11T15:13:04.579Z,24.30
2018-09-11T15:15:31.929Z,24.20
2018-09-11T15:17:59.214Z,24.20
2018-09-11T15:20:26.534Z,24.20
2018-09-11T15:22:54.084Z,24.20
2018-09-11T15:25:21.357Z,24.20
2018-09-11T15:27:48.637Z,24.20
2018-09-11T15:30:15.909Z,24.20
2018-09-11T15:32:43.205Z,24.20
2018-09-11T15:35:10.521Z,24.20
2018-09-11T15:37:37.799Z,24.20
2018-09-11T15:40:05.146Z,24.20
2018-09-11T15:42:32.439Z,24.20
2018-09-11T15:44:59.729Z,24.20
2018-09-11T15:47:27.118Z,24.20
2018-09-11T15:49:54.409Z,24.20
2018-09-11T15:52:21.665Z,24.20
2018-09-11T15:54:48.942Z,24.20
2018-09-11T15:57:16.220Z,24.20
2018-09-11T15:59:43.494Z,24.20
2018-09-11T16:02:10.781Z,24.20
2018-09-11T16:04:38.053Z,24.10
2018-09-11T16:07:05.389Z,24.10
2018-09-11T16:09:32.741Z,24.10
2018-09-11T16:12:00.010Z,24.10
2018-09-11T16:14:27.301Z,24.10
2018-09-11T16:16:54.550Z,24.10
2018-09-11T16:19:21.821Z,24.00
2018-09-11T16:21:49.146Z,24.00
2018-09-11T16:24:16.451Z,24.00
2018-09-11T16:26:43.722Z,24.00
2018-09-11T16:29:11.017Z,24.00
2018-09-11T16:31:38.574Z,23.90
2018-09-11T16:34:05.884Z,23.90
2018-09-11T16:36:33.159Z,23.90
2018-09-11T16:39:00.446Z,23.80
2018-09-11T16:41:27.724Z,23.80
2018-09-11T16:43:55.013Z,23.70
2018-09-11T16:46:22.285Z,23.70
2018-09-11T16:48:49.567Z,23.70
2018-09-11T16:51:16.893Z,23.60
2018-09-11T16:53:44.203Z,23.50
2018-09-11T16:56:11.457Z,23.50
2018-09-11T16:58:38.694Z,23.50
2018-09-11T17:01:05.905Z,23.40
2018-09-11T17:03:33.118Z,23.40
2018-09-11T17:06:00.323Z,23.30
2018-09-11T17:08:27.545Z,23.20
2018-09-11T17:10:54.773Z,23.20
2018-09-11T17:13:22.007Z,23.00
2018-09-11T17:15:49.363Z,23.00
2018-09-11T17:18:16.557Z,22.90
2018-09-11T17:20:43.805Z,22.90
2018-09-11T17:23:11.033Z,22.80
2018-09-11T17:25:38.279Z,22.70
2018-09-11T17:28:05.478Z,22.70
2018-09-11T17:30:32.685Z,22.60
2018-09-11T17:32:59.904Z,22.60
2018-09-11T17:35:27.438Z,22.50
2018-09-11T17:37:54.662Z,22.00
2018-09-11T17:40:21.938Z,22.30
2018-09-11T17:42:49.188Z,22.20
2018-09-11T17:45:16.350Z,22.00
2018-09-11T17:47:43.665Z,21.80
2018-09-11T17:50:10.889Z,21.70
2018-09-11T17:52:38.101Z,21.60
2018-09-11T17:55:05.406Z,21.30
2018-09-11T17:57:32.601Z,21.30
2018-09-11T17:59:59.823Z,21.20
2018-09-11T18:02:28.025Z,21.00
2018-09-11T18:04:55.256Z,20.90
2018-09-11T18:07:22.541Z,20.90
2018-09-11T18:09:49.758Z,20.70
2018-09-11T18:12:17.201Z,20.70
2018-09-11T18:14:44.421Z,20.60
2018-09-11T18:17:11.621Z,20.50
2018-09-11T18:19:38.857Z,20.40
2018-09-11T18:22:06.073Z,20.30
2018-09-11T18:24:33.325Z,20.30
2018-09-11T18:27:00.602Z,20.20
2018-09-11T18:29:27.911Z,20.10
2018-09-11T18:31:55.280Z,20.00
2018-09-11T18:34:22.547Z,20.00
2018-09-11T18:36:49.839Z,19.90
2018-09-11T18:39:17.101Z,19.90
2018-09-11T18:41:44.382Z,19.80
2018-09-11T18:44:11.664Z,19.70
2018-09-11T18:46:38.933Z,19.70
2018-09-11T18:49:06.925Z,19.60
2018-09-11T18:51:34.295Z,19.60
2018-09-11T18:54:01.457Z,19.50
2018-09-11T18:56:28.727Z,19.40
2018-09-11T18:58:55.964Z,19.40
2018-09-11T19:01:23.283Z,19.30
2018-09-11T19:03:50.502Z,19.40
2018-09-11T19:06:17.745Z,19.50
2018-09-11T19:08:44.954Z,19.50
2018-09-11T19:11:12.912Z,19.50
2018-09-11T19:13:40.061Z,19.50
2018-09-11T19:16:07.303Z,19.60
2018-09-11T19:18:34.545Z,19.50
2018-09-11T19:21:01.757Z,19.60
2018-09-11T19:23:28.954Z,19.60
2018-09-11T19:25:56.211Z,19.50
2018-09-11T19:28:23.433Z,19.50
2018-09-11T19:30:50.669Z,19.40
2018-09-11T19:33:17.909Z,19.30
2018-09-11T19:35:45.109Z,19.40
2018-09-11T19:38:12.330Z,19.30
2018-09-11T19:40:39.609Z,19.30
2018-09-11T19:43:06.823Z,19.30
2018-09-11T19:45:34.235Z,19.30
2018-09-11T19:48:01.514Z,19.20
2018-09-11T19:50:28.873Z,19.10
2018-09-11T19:52:56.198Z,19.10
2018-09-11T19:55:23.430Z,18.90
2018-09-11T19:57:50.842Z,18.90
2018-09-11T20:00:18.189Z,18.80
2018-09-11T20:02:45.458Z,18.80
2018-09-11T20:05:12.732Z,18.70
2018-09-11T20:07:40.005Z,18.50
2018-09-11T20:10:07.410Z,18.40
2018-09-11T20:12:34.669Z,18.40
2018-09-11T20:15:02.058Z,18.30
2018-09-11T20:17:29.429Z,18.30
2018-09-11T20:19:56.774Z,18.30
2018-09-11T20:22:24.046Z,18.30
2018-09-11T20:24:51.319Z,18.40
2018-09-11T20:27:18.734Z,18.40
2018-09-11T20:29:46.026Z,18.40
2018-09-11T20:32:13.291Z,18.30
2018-09-11T20:34:40.598Z,18.20
2018-09-11T20:37:08.053Z,18.10
2018-09-11T20:39:35.456Z,18.10
2018-09-11T20:42:02.834Z,18.10
2018-09-11T20:44:30.109Z,18.10
2018-09-11T20:46:57.527Z,18.10
2018-09-11T20:49:25.052Z,18.20
2018-09-11T20:51:52.401Z,18.30
2018-09-11T20:54:19.633Z,18.30
2018-09-11T20:56:46.905Z,18.20
2018-09-11T20:59:14.114Z,18.10
2018-09-11T21:01:41.473Z,18.10
2018-09-11T21:04:08.799Z,18.10
2018-09-11T21:06:36.176Z,18.10
2018-09-11T21:09:05.201Z,18.20
2018-09-11T21:11:32.515Z,18.00
2018-09-11T21:13:59.734Z,17.90
2018-09-11T21:16:26.978Z,17.80
2018-09-11T21:18:54.305Z,17.80
2018-09-11T21:21:21.633Z,17.80
2018-09-11T21:23:48.890Z,17.60
2018-09-11T21:26:16.097Z,17.60
2018-09-11T21:28:43.303Z,17.60
2018-09-11T21:31:10.745Z,17.40
2018-09-11T21:33:37.955Z,17.40
2018-09-11T21:36:05.341Z,17.20
2018-09-11T21:38:32.686Z,17.20
2018-09-11T21:40:59.917Z,17.30
2018-09-11T21:43:27.241Z,17.20
2018-09-11T21:45:54.450Z,17.20
2018-09-11T21:48:21.662Z,17.30
2018-09-11T21:50:48.909Z,17.20
2018-09-11T21:53:16.427Z,17.20
2018-09-11T21:55:43.646Z,17.30
2018-09-11T21:58:11.049Z,17.20
2018-09-11T22:00:42.958Z,17.20
2018-09-11T22:03:10.215Z,17.00
2018-09-11T22:05:37.511Z,17.10
2018-09-11T22:08:04.746Z,17.00
2018-09-11T22:10:32.023Z,17.00
2018-09-11T22:12:59.359Z,16.90
2018-09-11T22:15:26.689Z,16.80
2018-09-11T22:17:53.941Z,16.80
2018-09-11T22:20:21.229Z,16.70
2018-09-11T22:22:48.500Z,16.50
2018-09-11T22:25:15.781Z,16.40
2018-09-11T22:27:43.060Z,16.50
2018-09-11T22:30:10.338Z,16.50
2018-09-11T22:32:37.653Z,16.50
2018-09-11T22:35:04.989Z,16.60
2018-09-11T22:37:32.289Z,16.50
2018-09-11T22:39:59.686Z,16.40
2018-09-11T22:42:27.044Z,16.40
2018-09-11T22:44:54.318Z,16.20
2018-09-11T22:47:21.597Z,16.30
2018-09-11T22:49:48.863Z,16.20
2018-09-11T22:52:16.162Z,16.10
2018-09-11T22:54:43.429Z,16.00
2018-09-11T22:57:10.741Z,15.90
2018-09-11T22:59:38.010Z,15.90
2018-09-11T23:02:05.313Z,16.00
2018-09-11T23:04:32.610Z,16.10
2018-09-11T23:06:59.885Z,16.10
2018-09-11T23:09:27.133Z,16.00
2018-09-11T23:11:54.401Z,16.10
2018-09-11T23:14:21.654Z,16.10
2018-09-11T23:16:48.921Z,16.10
2018-09-11T23:19:16.191Z,16.20
2018-09-11T23:21:43.493Z,16.10
2018-09-11T23:24:10.813Z,16.00
2018-09-11T23:26:38.233Z,16.00
2018-09-11T23:29:05.510Z,15.80
2018-09-11T23:31:32.837Z,15.60
2018-09-11T23:34:00.121Z,15.50
2018-09-11T23:36:27.386Z,15.30
2018-09-11T23:38:54.733Z,15.10
2018-09-11T23:41:22.050Z,15.10
2018-09-11T23:43:49.354Z,15.30
2018-09-11T23:46:16.621Z,15.50
2018-09-11T23:48:43.913Z,15.60
2018-09-11T23:51:11.193Z,15.60
2018-09-11T23:53:38.454Z,15.60
2018-09-11T23:56:05.721Z,15.50
2018-09-11T23:58:32.954Z,15.30
